Time;durP1;ratioP1;P1;durP2;ratioP2;P2;SDS_P1;SDS_P2;PMS_P1;PMS_P2;Temp;Humidity;BMP_temperature;BMP_pressure;BME280_temperature;BME280_humidity;BME280_pressure;Samples;Min_cycle;Max_cycle;Signal;HPM_P1;HPM_P2
2021/01/16 00:02:25;;;;;;;13.70;6.10;;;;;;;2.02;67.07;101775.13;8456799;33;20949;-72
2021/01/16 00:07:28;;;;;;;14.00;6.27;;;;;;;2.00;65.71;101766.34;8448175;33;20681;-72
2021/01/16 00:12:31;;;;;;;13.13;5.43;;;;;;;2.03;66.95;101765.44;8466443;33;20480;-72
2021/01/16 00:17:33;;;;;;;11.33;5.90;;;;;;;2.03;65.86;101762.81;8473003;33;20450;-72
2021/01/16 00:22:47;;;;;;;12.40;6.00;;;;;;;1.94;66.06;101756.72;8475245;33;20834;-71
2021/01/16 00:27:50;;;;;;;10.90;5.40;;;;;;;1.87;66.15;101748.91;8474979;33;20520;-72
2021/01/16 00:32:53;;;;;;;16.97;7.07;;;;;;;1.90;66.50;101748.88;8482267;33;20155;-69
2021/01/16 00:37:56;;;;;;;17.07;7.13;;;;;;;2.04;67.15;101733.81;8485140;33;20284;-72
2021/01/16 00:43:07;;;;;;;15.10;6.57;;;;;;;2.18;66.91;101737.16;8490101;33;20234;-70
2021/01/16 00:48:11;;;;;;;15.70;6.33;;;;;;;2.19;66.35;101735.38;8492664;33;20429;-70
2021/01/16 00:53:16;;;;;;;16.17;6.07;;;;;;;2.19;66.50;101740.66;8506773;33;20304;-70
2021/01/16 00:58:42;;;;;;;13.30;7.33;;;;;;;2.13;65.63;101736.34;8448038;33;20394;-72
2021/01/16 01:04:03;;;;;;;14.83;6.47;;;;;;;2.08;65.70;101739.91;8394757;33;20153;-72
2021/01/16 01:09:06;;;;;;;17.97;8.10;;;;;;;1.80;67.74;101747.22;8416975;33;21010;-71
2021/01/16 01:14:08;;;;;;;17.40;7.53;;;;;;;1.81;68.22;101747.22;8415680;33;20276;-71
2021/01/16 01:19:11;;;;;;;16.27;7.13;;;;;;;1.60;68.33;101745.63;8417338;33;20582;-71
2021/01/16 01:24:14;;;;;;;15.10;6.87;;;;;;;1.55;69.69;101757.94;8421404;33;22018;-71
2021/01/16 01:29:17;;;;;;;18.13;7.30;;;;;;;1.78;68.98;101748.09;8466442;33;20662;-72
2021/01/16 01:34:19;;;;;;;14.90;6.83;;;;;;;1.84;68.54;101739.28;8488316;33;20858;-72
2021/01/16 01:39:23;;;;;;;17.40;7.33;;;;;;;1.82;67.90;101737.53;8483467;33;20461;-71
2021/01/16 01:44:25;;;;;;;14.67;6.90;;;;;;;1.79;68.20;101741.06;8483961;33;20512;-70
2021/01/16 01:49:28;;;;;;;12.27;6.13;;;;;;;1.93;68.36;101730.41;8483773;33;21565;-72
2021/01/16 01:54:31;;;;;;;13.10;7.17;;;;;;;1.92;68.49;101734.81;8493468;33;20556;-69
2021/01/16 01:59:36;;;;;;;14.60;6.57;;;;;;;1.96;68.40;101733.00;8481579;33;20513;-72
2021/01/16 02:04:45;;;;;;;17.53;7.40;;;;;;;1.88;68.83;101727.78;8480786;33;20502;-72
2021/01/16 02:09:49;;;;;;;12.57;6.70;;;;;;;1.87;68.23;101723.44;8481513;33;20149;-72
2021/01/16 02:15:06;;;;;;;15.83;6.70;;;;;;;1.78;68.81;101720.84;8481804;33;22720;-71
2021/01/16 02:20:12;;;;;;;14.10;5.90;;;;;;;1.68;68.65;101720.09;8481790;33;20454;-72
2021/01/16 02:25:18;;;;;;;15.53;6.73;;;;;;;1.77;68.58;101721.75;8487421;33;20422;-71
2021/01/16 02:30:23;;;;;;;17.10;7.17;;;;;;;1.86;68.17;101712.88;8478679;33;20422;-70
2021/01/16 02:35:27;;;;;;;11.37;5.90;;;;;;;1.96;68.36;101710.16;8479338;33;20419;-72
2021/01/16 02:40:35;;;;;;;13.17;6.50;;;;;;;2.00;68.40;101701.34;8477771;33;21193;-69
2021/01/16 02:45:44;;;;;;;16.50;7.70;;;;;;;2.00;67.75;101700.44;8481141;33;20155;-72
2021/01/16 02:50:51;;;;;;;15.47;7.73;;;;;;;1.94;67.80;101692.59;8480062;33;20173;-72
2021/01/16 02:55:54;;;;;;;16.37;6.97;;;;;;;1.88;67.70;101696.16;8479121;33;20885;-72
2021/01/16 03:00:58;;;;;;;15.40;6.63;;;;;;;1.93;67.46;101696.13;8478989;33;20191;-72
2021/01/16 03:06:02;;;;;;;17.85;6.95;;;;;;;1.70;68.27;101698.97;8479482;33;21026;-72
2021/01/16 03:11:07;;;;;;;19.07;7.60;;;;;;;1.72;68.24;101686.66;8480214;33;20157;-72
2021/01/16 03:16:21;;;;;;;17.00;7.20;;;;;;;1.67;68.55;101684.06;8478715;33;20165;-72
2021/01/16 03:21:24;;;;;;;14.10;6.73;;;;;;;1.72;68.10;101679.63;8477635;33;21007;-72
2021/01/16 03:26:26;;;;;;;13.37;6.97;;;;;;;1.45;69.37;101671.97;8478962;33;20813;-72
2021/01/16 03:31:29;;;;;;;12.97;6.77;;;;;;;1.78;68.79;101674.31;8480036;33;20180;-72
2021/01/16 03:36:32;;;;;;;16.60;7.00;;;;;;;1.78;68.10;101662.88;8473141;33;21183;-72
2021/01/16 03:41:34;;;;;;;13.70;7.07;;;;;;;1.85;68.53;101658.44;8471340;33;20649;-71
2021/01/16 03:46:37;;;;;;;13.87;7.50;;;;;;;1.92;67.77;101647.81;8476145;33;20145;-72
2021/01/16 03:51:40;;;;;;;16.93;7.83;;;;;;;1.82;68.04;101645.28;8477052;33;20562;-72
2021/01/16 03:56:43;;;;;;;13.07;6.33;;;;;;;1.86;68.12;101653.13;8477065;33;20146;-70
2021/01/16 04:01:46;;;;;;;17.73;7.07;;;;;;;1.70;68.26;101646.28;8480154;33;20570;-72
2021/01/16 04:06:49;;;;;;;14.93;6.90;;;;;;;1.75;68.88;101655.88;8479534;33;20231;-70
2021/01/16 04:11:51;;;;;;;14.17;6.50;;;;;;;1.74;68.42;101643.59;8479277;33;20458;-72
2021/01/16 04:16:55;;;;;;;16.07;6.63;;;;;;;1.75;68.90;101653.25;8480447;33;20784;-72
2021/01/16 04:21:57;;;;;;;17.97;6.87;;;;;;;1.76;68.67;101648.88;8498784;33;21994;-71
2021/01/16 04:27:01;;;;;;;16.80;7.07;;;;;;;1.70;69.04;101651.53;8485917;33;21104;-72
2021/01/16 04:32:05;;;;;;;12.67;6.33;;;;;;;1.73;69.02;101648.91;8479750;33;20421;-72
2021/01/16 04:37:07;;;;;;;15.57;6.67;;;;;;;1.83;69.13;101647.03;8483946;33;20133;-72
2021/01/16 04:42:14;;;;;;;16.20;6.97;;;;;;;1.81;68.80;101639.16;8484836;33;21321;-71
2021/01/16 04:47:24;;;;;;;13.60;6.53;;;;;;;1.74;69.46;101640.09;8485225;33;20524;-72
2021/01/16 04:52:29;;;;;;;13.00;6.03;;;;;;;1.86;68.71;101639.97;8485247;33;20137;-72
2021/01/16 04:57:31;;;;;;;15.17;6.63;;;;;;;1.88;68.19;101622.38;8485930;33;20188;-71
2021/01/16 05:02:39;;;;;;;13.20;6.87;;;;;;;1.80;68.40;101610.19;8488731;33;20429;-71
2021/01/16 05:07:43;;;;;;;12.40;6.93;;;;;;;1.68;68.66;101608.56;8485751;33;21018;-72
2021/01/16 05:12:58;;;;;;;12.00;6.37;;;;;;;1.50;69.37;101606.97;8485375;33;21561;-72
2021/01/16 05:18:05;;;;;;;13.70;6.73;;;;;;;1.52;69.51;101592.91;8484747;33;21411;-70
2021/01/16 05:23:18;;;;;;;13.90;5.93;;;;;;;1.67;68.62;101581.31;8487340;33;20732;-69
2021/01/16 05:28:22;;;;;;;13.43;6.30;;;;;;;1.96;68.26;101590.66;8490737;33;20542;-70
2021/01/16 05:33:27;;;;;;;16.23;6.80;;;;;;;2.14;68.17;101597.44;8497571;33;20219;-70
2021/01/16 05:38:34;;;;;;;21.83;8.50;;;;;;;2.29;67.93;101583.22;8489559;33;20412;-70
2021/01/16 05:43:40;;;;;;;9.73;6.40;;;;;;;2.12;68.09;101584.31;8517337;33;20156;-71
2021/01/16 05:48:44;;;;;;;18.73;7.13;;;;;;;2.20;68.07;101576.31;8495014;33;20443;-70
2021/01/16 05:53:48;;;;;;;13.87;7.03;;;;;;;2.25;67.25;101563.94;8483386;33;20149;-72
2021/01/16 05:58:52;;;;;;;12.80;6.77;;;;;;;2.24;66.97;101567.44;8486560;33;20139;-70
2021/01/16 06:03:55;;;;;;;12.63;6.90;;;;;;;2.37;67.07;101554.97;8487378;33;20445;-70
2021/01/16 06:08:58;;;;;;;13.10;6.70;;;;;;;2.36;66.00;101550.56;8488306;33;21111;-72
2021/01/16 06:14:02;;;;;;;15.03;7.23;;;;;;;2.18;66.75;101552.56;8494584;33;21835;-70
2021/01/16 06:19:07;;;;;;;11.17;6.47;;;;;;;2.05;66.97;101545.72;8496435;33;20543;-70
2021/01/16 06:24:14;;;;;;;16.67;7.60;;;;;;;1.99;68.09;101533.50;8489350;33;20563;-72
2021/01/16 06:29:26;;;;;;;14.77;7.30;;;;;;;1.96;67.88;101535.31;8493591;33;20423;-71
2021/01/16 06:34:33;;;;;;;13.43;6.67;;;;;;;2.03;67.60;101541.34;8502888;33;20654;-70
2021/01/16 06:39:38;;;;;;;19.13;6.47;;;;;;;2.10;67.83;101541.25;8500280;33;20468;-72
2021/01/16 06:44:41;;;;;;;15.73;7.33;;;;;;;2.18;67.22;101538.53;8501258;33;20236;-72
2021/01/16 06:49:49;;;;;;;15.23;6.93;;;;;;;2.11;67.43;101529.84;8494498;33;20682;-72
2021/01/16 06:54:52;;;;;;;16.40;7.60;;;;;;;1.99;67.78;101524.72;8494983;33;20313;-71
2021/01/16 07:00:00;;;;;;;19.27;7.40;;;;;;;1.97;68.36;101524.72;8487113;33;20381;-70
2021/01/16 07:05:07;;;;;;;16.13;7.30;;;;;;;2.02;68.44;101516.75;8491249;33;20199;-72
2021/01/16 07:10:12;;;;;;;17.07;7.83;;;;;;;2.03;68.35;101507.09;8503173;33;20592;-69
2021/01/16 07:15:16;;;;;;;19.00;8.57;;;;;;;2.18;68.63;101520.06;8502208;33;20557;-69
2021/01/16 07:20:21;;;;;;;18.40;9.07;;;;;;;2.36;68.42;101518.91;8501661;33;21846;-69
2021/01/16 07:25:24;;;;;;;20.13;9.07;;;;;;;2.41;68.43;101517.09;8501214;33;20687;-70
2021/01/16 07:30:26;;;;;;;19.43;8.83;;;;;;;2.29;67.75;101504.09;8476934;33;22104;-69
2021/01/16 07:35:30;;;;;;;20.13;9.23;;;;;;;2.11;68.36;101506.13;8501846;33;20470;-69
2021/01/16 07:40:33;;;;;;;15.27;7.83;;;;;;;2.29;68.34;101504.09;8499354;33;20169;-70
2021/01/16 07:45:37;;;;;;;23.47;10.53;;;;;;;2.47;68.42;101500.28;8499262;33;20603;-69
2021/01/16 07:50:43;;;;;;;21.83;8.50;;;;;;;2.52;68.40;101501.09;8501771;33;20487;-70
2021/01/16 07:55:46;;;;;;;23.87;10.20;;;;;;;2.32;68.10;101501.41;8492437;33;21919;-69
2021/01/16 08:00:53;;;;;;;19.77;9.20;;;;;;;2.15;69.15;101497.25;8507964;33;20422;-71
2021/01/16 08:06:12;;;;;;;21.30;8.97;;;;;;;2.19;68.66;101492.78;8503979;33;20385;-69
2021/01/16 08:11:20;;;;;;;16.67;8.80;;;;;;;2.38;68.85;101482.84;8503461;33;20443;-70
2021/01/16 08:16:25;;;;;;;21.70;9.77;;;;;;;2.56;68.38;101472.00;8507496;33;20473;-70
2021/01/16 08:21:29;;;;;;;27.87;11.83;;;;;;;3.04;69.19;101476.44;8508383;33;21943;-70
2021/01/16 08:26:32;;;;;;;23.63;10.97;;;;;;;3.24;67.00;101471.69;8510497;33;20978;-69
2021/01/16 08:31:34;;;;;;;21.70;9.63;;;;;;;3.02;66.68;101468.59;8511255;33;20149;-69
2021/01/16 08:36:38;;;;;;;20.33;9.77;;;;;;;2.91;66.68;101481.09;8510764;33;20407;-69
2021/01/16 08:41:40;;;;;;;19.73;8.00;;;;;;;2.76;67.45;101470.81;8510844;33;20436;-69
2021/01/16 08:46:43;;;;;;;24.53;9.87;;;;;;;2.47;67.94;101469.53;8506612;33;20188;-69
2021/01/16 08:51:52;;;;;;;21.07;9.67;;;;;;;2.56;67.75;101465.88;8506442;33;20628;-69
2021/01/16 08:57:13;;;;;;;18.47;8.33;;;;;;;2.63;68.00;101468.38;8507502;33;20611;-70
2021/01/16 09:02:17;;;;;;;22.23;9.30;;;;;;;2.73;68.14;101458.53;8508175;33;20655;-69
2021/01/16 09:07:23;;;;;;;19.83;9.67;;;;;;;2.70;67.95;101466.50;8535881;33;20464;-70
2021/01/16 09:12:30;;;;;;;26.20;10.17;;;;;;;2.89;67.82;101461.78;8524587;33;20140;-70
2021/01/16 09:17:33;;;;;;;19.63;9.63;;;;;;;3.02;66.67;101457.16;8533543;33;20402;-70
2021/01/16 09:22:37;;;;;;;20.67;9.57;;;;;;;3.10;66.72;101453.47;8561647;33;20701;-70
2021/01/16 09:27:46;;;;;;;19.47;9.50;;;;;;;3.24;66.17;101460.25;8534037;33;20250;-69
2021/01/16 09:32:49;;;;;;;18.87;9.20;;;;;;;3.02;65.94;101459.78;8535293;33;20183;-70
2021/01/16 09:37:52;;;;;;;20.33;9.60;;;;;;;3.12;66.05;101453.41;8500878;33;20700;-70
2021/01/16 09:42:55;;;;;;;21.80;9.30;;;;;;;3.13;65.52;101452.53;8490265;33;20965;-69
2021/01/16 09:47:57;;;;;;;21.37;9.60;;;;;;;3.21;65.13;101442.69;8490332;33;20239;-70
2021/01/16 09:53:05;;;;;;;19.20;8.97;;;;;;;3.30;65.05;101436.38;8494976;33;20479;-70
2021/01/16 09:58:30;;;;;;;17.97;10.00;;;;;;;3.63;64.23;101441.84;8511326;33;20286;-71
2021/01/16 10:03:33;;;;;;;17.80;8.97;;;;;;;3.54;63.20;101435.00;8550761;33;20440;-70
2021/01/16 10:08:40;;;;;;;16.57;8.13;;;;;;;3.65;63.31;101414.50;8556685;33;20446;-69
2021/01/16 10:13:42;;;;;;;18.63;8.67;;;;;;;3.76;62.54;101414.25;8558719;33;20179;-69
2021/01/16 10:19:00;;;;;;;17.57;8.37;;;;;;;3.92;61.83;101407.72;8561151;33;20942;-71
2021/01/16 10:24:17;;;;;;;19.47;9.30;;;;;;;3.84;61.71;101396.44;8547034;33;20420;-69
2021/01/16 10:29:33;;;;;;;16.63;8.27;;;;;;;3.88;61.48;101386.66;8529829;33;20442;-69
2021/01/16 10:34:40;;;;;;;16.87;9.37;;;;;;;3.77;61.85;101386.91;8526915;33;20420;-69
2021/01/16 10:39:48;;;;;;;18.27;9.03;;;;;;;3.83;61.72;101383.25;8528035;33;20184;-70
2021/01/16 10:44:54;;;;;;;18.53;8.50;;;;;;;3.79;61.12;101377.19;8528358;33;20451;-69
2021/01/16 10:50:05;;;;;;;17.93;8.77;;;;;;;3.37;61.90;101377.19;8541839;33;21251;-71
2021/01/16 10:55:11;;;;;;;15.90;7.57;;;;;;;3.50;62.10;101349.63;8511066;33;20147;-71
2021/01/16 11:00:19;;;;;;;17.50;7.83;;;;;;;3.60;61.35;101346.78;8482787;33;20632;-69
2021/01/16 11:05:26;;;;;;;16.87;8.33;;;;;;;3.49;61.78;101341.75;8511863;33;20465;-70
2021/01/16 11:10:33;;;;;;;15.70;8.37;;;;;;;3.59;61.53;101345.88;8521678;33;20221;-70
2021/01/16 11:15:37;;;;;;;17.43;8.70;;;;;;;3.52;61.74;101353.09;8505200;33;20148;-72
2021/01/16 11:20:50;;;;;;;11.80;6.10;;;;;;;3.26;62.27;101342.22;8511963;33;20152;-70
2021/01/16 11:25:53;;;;;;;19.80;9.00;;;;;;;3.28;61.70;101343.94;8481733;33;20455;-70
2021/01/16 11:31:05;;;;;;;15.60;9.03;;;;;;;3.23;62.23;101321.16;8514133;33;20226;-70
2021/01/16 11:36:14;;;;;;;18.80;8.90;;;;;;;3.31;62.93;101309.53;8537049;33;20615;-70
2021/01/16 11:41:55;;;;;;;12.53;5.90;;;;;;;3.18;62.16;101315.09;8530361;33;20342;-70
2021/01/16 11:47:03;;;;;;;19.50;8.97;;;;;;;3.23;62.45;101308.81;8508816;33;20420;-70
2021/01/16 11:52:06;;;;;;;16.27;7.13;;;;;;;3.04;62.95;101307.47;8516301;33;20509;-70
2021/01/16 11:57:11;;;;;;;20.47;8.93;;;;;;;3.44;62.10;101293.41;8508391;33;20404;-70
2021/01/16 12:02:15;;;;;;;16.50;8.70;;;;;;;3.63;61.52;101283.28;8497897;33;20187;-70
2021/01/16 12:07:19;;;;;;;16.03;7.30;;;;;;;3.65;61.07;101278.81;8478945;33;20133;-70
2021/01/16 12:12:31;;;;;;;13.33;6.80;;;;;;;3.31;61.72;101277.81;8507785;33;20200;-70
2021/01/16 12:17:34;;;;;;;20.43;10.10;;;;;;;3.28;62.03;101263.81;8482321;33;20576;-69
2021/01/16 12:22:41;;;;;;;11.67;6.97;;;;;;;3.38;61.77;101260.06;8483286;33;20926;-70
2021/01/16 12:27:51;;;;;;;11.70;6.43;;;;;;;3.19;62.20;101238.50;8480491;33;20151;-70
2021/01/16 12:32:55;;;;;;;24.83;9.63;;;;;;;3.54;62.30;101236.81;8499350;33;20187;-70
2021/01/16 12:37:58;;;;;;;20.30;9.57;;;;;;;3.91;61.80;101241.19;8476840;33;20145;-71
2021/01/16 12:43:01;;;;;;;16.53;8.07;;;;;;;3.59;61.61;101234.03;8508057;33;21274;-70
2021/01/16 12:48:06;;;;;;;16.47;8.23;;;;;;;3.76;61.56;101223.94;8502258;33;20184;-70
2021/01/16 12:53:10;;;;;;;15.93;7.77;;;;;;;3.67;62.25;101213.56;8524707;33;20442;-70
2021/01/16 12:58:13;;;;;;;18.73;8.33;;;;;;;3.76;61.54;101210.72;8537508;33;21025;-71
2021/01/16 13:03:15;;;;;;;17.23;8.47;;;;;;;3.78;61.33;101203.59;8534202;33;20239;-70
2021/01/16 13:08:22;;;;;;;19.30;8.40;;;;;;;3.73;61.61;101194.91;8498749;33;20730;-70
2021/01/16 13:13:25;;;;;;;16.43;8.57;;;;;;;3.74;61.36;101196.66;8515046;33;20506;-71
2021/01/16 13:18:33;;;;;;;16.30;9.87;;;;;;;3.92;61.93;101188.28;8511688;33;20188;-71
2021/01/16 13:23:37;;;;;;;19.87;9.77;;;;;;;3.95;60.76;101185.53;8515562;33;20190;-71
2021/01/16 13:28:42;;;;;;;17.40;9.80;;;;;;;3.94;61.20;101167.06;8540666;33;20521;-72
2021/01/16 13:33:50;;;;;;;19.27;9.60;;;;;;;4.14;60.75;101166.50;8531263;33;20483;-71
2021/01/16 13:38:54;;;;;;;22.47;9.57;;;;;;;3.90;60.81;101160.13;8511903;33;20440;-72
2021/01/16 13:43:58;;;;;;;18.97;10.30;;;;;;;3.93;61.34;101158.25;8536800;33;20913;-70
2021/01/16 13:49:00;;;;;;;15.10;8.60;;;;;;;3.94;61.07;101151.19;8533419;33;20440;-71
2021/01/16 13:54:05;;;;;;;16.80;10.17;;;;;;;3.77;61.21;101154.28;8530149;33;20186;-71
2021/01/16 13:59:11;;;;;;;19.43;9.30;;;;;;;3.64;62.12;101150.22;8528335;33;20286;-71
2021/01/16 14:04:13;;;;;;;19.57;9.20;;;;;;;3.69;61.72;101148.34;8527759;33;21013;-71
2021/01/16 14:09:21;;;;;;;20.30;9.60;;;;;;;3.69;62.05;101143.06;8529318;33;20597;-71
2021/01/16 14:14:31;;;;;;;15.70;8.70;;;;;;;3.64;61.96;101139.66;8530063;33;20427;-71
2021/01/16 14:19:35;;;;;;;20.57;10.20;;;;;;;3.69;62.35;101124.56;8530777;33;20200;-71
2021/01/16 14:24:54;;;;;;;21.17;9.40;;;;;;;3.56;61.90;101124.88;8530644;33;20406;-71
2021/01/16 14:29:58;;;;;;;18.90;9.87;;;;;;;3.70;62.13;101110.41;8526964;33;21062;-72
2021/01/16 14:35:00;;;;;;;22.27;10.00;;;;;;;3.63;62.14;101114.16;8502197;33;20424;-71
2021/01/16 14:40:04;;;;;;;20.63;10.30;;;;;;;3.60;62.52;101106.31;8545026;33;20545;-70
2021/01/16 14:45:09;;;;;;;17.03;9.63;;;;;;;3.68;62.52;101101.69;8555113;33;20128;-71
2021/01/16 14:50:13;;;;;;;27.07;9.83;;;;;;;3.63;62.85;101085.09;8550718;33;20812;-71
2021/01/16 14:55:17;;;;;;;20.07;10.47;;;;;;;3.62;62.11;101078.94;8545934;33;21261;-72
2021/01/16 15:00:27;;;;;;;19.83;9.50;;;;;;;3.48;62.94;101071.38;8544621;33;20236;-72
2021/01/16 15:05:33;;;;;;;19.73;10.23;;;;;;;3.56;62.77;101060.59;8528343;33;20479;-72
2021/01/16 15:10:40;;;;;;;26.17;10.63;;;;;;;3.56;62.59;101069.41;8509251;33;20666;-71
2021/01/16 15:15:47;;;;;;;22.83;10.97;;;;;;;3.50;62.80;101047.53;8500703;33;20647;-69
2021/01/16 15:20:53;;;;;;;21.77;10.40;;;;;;;3.53;63.14;101061.53;8529427;33;21127;-71
2021/01/16 15:25:55;;;;;;;19.33;10.03;;;;;;;3.41;63.02;101046.03;8557581;33;20314;-71
2021/01/16 15:31:03;;;;;;;17.87;8.40;;;;;;;3.33;63.41;101037.44;8553722;33;20532;-71
2021/01/16 15:36:07;;;;;;;24.03;11.33;;;;;;;3.19;63.74;101036.94;8525227;33;20148;-71
2021/01/16 15:41:10;;;;;;;28.93;12.30;;;;;;;3.29;63.39;101036.66;8558384;33;20419;-69
2021/01/16 15:46:16;;;;;;;22.50;11.70;;;;;;;3.32;63.45;101023.38;8557727;33;20235;-70
2021/01/16 15:51:26;;;;;;;26.87;11.87;;;;;;;3.32;63.54;101017.22;8542279;33;21075;-70
2021/01/16 15:56:31;;;;;;;24.10;11.13;;;;;;;3.28;63.57;101019.06;8535968;33;21387;-70
2021/01/16 16:01:38;;;;;;;25.10;11.73;;;;;;;3.35;63.41;101019.78;8485376;33;20449;-73
2021/01/16 16:06:42;;;;;;;28.83;11.53;;;;;;;3.35;63.28;101014.50;8487145;33;20409;-71
2021/01/16 16:11:44;;;;;;;18.17;10.03;;;;;;;3.29;63.63;101014.63;8485323;33;20248;-71
2021/01/16 16:16:47;;;;;;;25.93;11.67;;;;;;;3.35;63.37;101009.22;8511457;33;20141;-72
2021/01/16 16:21:52;;;;;;;24.40;10.83;;;;;;;3.32;63.35;100994.31;8538887;33;20488;-71
2021/01/16 16:26:54;;;;;;;24.97;11.30;;;;;;;3.34;63.48;100975.75;8553119;33;20418;-72
2021/01/16 16:31:57;;;;;;;23.83;11.77;;;;;;;3.31;63.41;100981.13;8560032;33;20226;-73
2021/01/16 16:37:00;;;;;;;20.30;11.30;;;;;;;3.32;63.36;100975.81;8554483;33;20404;-72
2021/01/16 16:42:02;;;;;;;23.73;11.97;;;;;;;3.35;63.54;100966.94;8540039;33;20434;-71
2021/01/16 16:47:06;;;;;;;23.60;9.90;;;;;;;3.30;63.57;100963.56;8542024;33;20145;-72
2021/01/16 16:52:12;;;;;;;22.67;11.50;;;;;;;3.32;63.40;100954.69;8532195;33;20430;-72
2021/01/16 16:57:14;;;;;;;24.77;11.63;;;;;;;3.24;63.62;100947.91;8532654;33;20414;-71
2021/01/16 17:02:18;;;;;;;29.83;12.00;;;;;;;3.25;63.73;100939.06;8546194;33;20664;-71
2021/01/16 17:07:20;;;;;;;22.47;10.87;;;;;;;3.24;63.48;100938.19;8547351;33;20487;-72
2021/01/16 17:12:23;;;;;;;27.90;12.50;;;;;;;3.28;63.11;100928.41;8544761;33;20409;-72
2021/01/16 17:17:26;;;;;;;24.40;11.80;;;;;;;3.25;63.83;100916.16;8516276;33;20145;-71
2021/01/16 17:22:29;;;;;;;20.50;10.03;;;;;;;3.21;64.14;100909.22;8512827;33;20421;-71
2021/01/16 17:27:31;;;;;;;22.53;11.33;;;;;;;3.15;64.17;100911.16;8533442;33;20159;-71
2021/01/16 17:32:34;;;;;;;26.27;12.67;;;;;;;3.12;64.02;100906.81;8532096;33;20566;-71
2021/01/16 17:37:38;;;;;;;24.43;10.83;;;;;;;3.07;64.38;100887.59;8533414;33;20432;-71
2021/01/16 17:42:40;;;;;;;26.03;12.17;;;;;;;3.02;64.81;100881.63;8514930;33;20200;-72
2021/01/16 17:47:47;;;;;;;28.27;12.40;;;;;;;2.95;64.48;100878.25;8517090;33;20327;-70
2021/01/16 17:52:52;;;;;;;23.90;12.20;;;;;;;2.96;64.87;100873.84;8510594;33;20579;-71
2021/01/16 17:57:55;;;;;;;27.93;12.00;;;;;;;2.93;65.32;100863.38;8529032;33;20445;-71
2021/01/16 18:02:58;;;;;;;23.77;11.63;;;;;;;2.96;64.80;100860.66;8536529;33;20429;-72
2021/01/16 18:08:00;;;;;;;25.23;12.00;;;;;;;2.93;64.98;100856.31;8532830;33;20194;-71
2021/01/16 18:13:03;;;;;;;22.57;11.93;;;;;;;2.94;64.98;100847.50;8506284;33;20617;-71
2021/01/16 18:18:07;;;;;;;29.23;13.33;;;;;;;2.88;65.14;100842.41;8508321;33;20457;-72
2021/01/16 18:23:09;;;;;;;22.17;12.00;;;;;;;2.89;65.04;100847.63;8511283;33;20467;-71
2021/01/16 18:28:11;;;;;;;28.50;14.53;;;;;;;2.88;65.19;100842.41;8509402;33;20188;-71
2021/01/16 18:33:15;;;;;;;27.70;14.03;;;;;;;2.83;65.22;100831.09;8511078;33;21061;-71
2021/01/16 18:38:17;;;;;;;27.37;12.93;;;;;;;2.85;65.38;100832.81;8540432;33;20508;-71
2021/01/16 18:43:20;;;;;;;26.80;13.17;;;;;;;2.80;65.23;100828.56;8566499;33;20179;-71
2021/01/16 18:48:23;;;;;;;27.73;14.60;;;;;;;2.74;65.52;100819.00;8541121;33;20508;-72
2021/01/16 18:53:25;;;;;;;28.60;13.90;;;;;;;2.67;65.65;100828.03;8560628;33;20662;-71
2021/01/16 18:58:28;;;;;;;23.93;12.77;;;;;;;2.72;66.03;100822.63;8557216;33;20418;-71
2021/01/16 19:03:31;;;;;;;27.07;12.13;;;;;;;2.72;65.70;100825.25;8554945;33;20644;-71
2021/01/16 19:08:33;;;;;;;29.73;13.97;;;;;;;2.72;65.72;100822.63;8559628;33;20846;-72
2021/01/16 19:13:37;;;;;;;28.80;14.40;;;;;;;2.64;65.54;100822.81;8550958;33;20462;-71
2021/01/16 19:18:40;;;;;;;23.17;11.97;;;;;;;2.73;64.99;100816.44;8552105;33;20152;-74
2021/01/16 19:23:43;;;;;;;27.83;12.97;;;;;;;2.65;64.80;100798.16;8561237;33;20413;-72
2021/01/16 19:28:47;;;;;;;29.53;13.13;;;;;;;2.68;64.63;100812.13;8578302;33;20175;-72
2021/01/16 19:33:56;;;;;;;25.90;13.30;;;;;;;2.66;64.31;100811.31;8568075;33;21217;-72
2021/01/16 19:38:58;;;;;;;26.17;13.73;;;;;;;2.68;64.26;100795.44;8548742;33;20209;-72
2021/01/16 19:44:01;;;;;;;31.67;13.77;;;;;;;2.68;64.67;100783.09;8544379;33;20187;-71
2021/01/16 19:49:05;;;;;;;28.90;15.00;;;;;;;2.70;64.44;100783.06;8521651;33;20469;-72
2021/01/16 19:54:08;;;;;;;35.00;17.90;;;;;;;2.75;64.42;100780.31;8539289;33;20464;-72
2021/01/16 19:59:13;;;;;;;25.43;14.27;;;;;;;2.74;64.29;100771.50;8530306;33;20400;-72
2021/01/16 20:04:16;;;;;;;32.73;14.30;;;;;;;2.72;63.87;100767.22;8503548;33;20917;-72
2021/01/16 20:09:18;;;;;;;28.47;12.77;;;;;;;2.72;63.18;100768.06;8494016;33;20144;-72
2021/01/16 20:14:21;;;;;;;28.33;13.37;;;;;;;2.69;63.40;100757.63;8480071;33;20511;-72
2021/01/16 20:19:24;;;;;;;24.20;13.07;;;;;;;2.59;62.99;100757.00;8506636;33;20414;-72
2021/01/16 20:24:27;;;;;;;22.67;10.77;;;;;;;2.59;62.34;100759.63;8501461;33;20152;-72
2021/01/16 20:29:29;;;;;;;23.77;10.93;;;;;;;2.54;62.31;100755.38;8487829;33;20487;-72
2021/01/16 20:34:32;;;;;;;23.80;11.50;;;;;;;2.62;62.01;100756.03;8489558;33;20132;-72
2021/01/16 20:39:38;;;;;;;23.37;11.80;;;;;;;2.63;61.96;100748.09;8488872;33;20240;-71
2021/01/16 20:44:40;;;;;;;20.07;11.67;;;;;;;2.63;61.30;100750.72;8492646;33;20148;-72
2021/01/16 20:49:43;;;;;;;16.80;8.73;;;;;;;2.63;61.21;100742.81;8492166;33;21217;-72
2021/01/16 20:54:46;;;;;;;20.73;10.40;;;;;;;2.58;60.89;100744.72;8490237;33;20543;-72
2021/01/16 20:59:49;;;;;;;22.87;10.20;;;;;;;2.64;60.16;100738.41;8488065;33;21820;-72
2021/01/16 21:04:52;;;;;;;20.67;9.33;;;;;;;2.67;59.73;100738.31;8488549;33;20189;-72
2021/01/16 21:09:55;;;;;;;19.70;9.70;;;;;;;2.64;59.65;100749.81;8487679;33;20478;-72
2021/01/16 21:14:57;;;;;;;17.57;9.70;;;;;;;2.74;59.56;100734.56;8488820;33;20915;-71
2021/01/16 21:20:00;;;;;;;22.97;10.33;;;;;;;2.76;59.45;100734.53;8484549;33;21030;-71
2021/01/16 21:25:06;;;;;;;20.20;10.50;;;;;;;2.75;59.62;100732.81;8476576;33;20525;-71
2021/01/16 21:30:12;;;;;;;22.53;10.80;;;;;;;2.82;59.72;100724.66;8488508;33;20593;-71
2021/01/16 21:35:15;;;;;;;23.00;11.00;;;;;;;2.83;59.54;100712.34;8499043;33;21194;-72
2021/01/16 21:40:18;;;;;;;22.27;9.53;;;;;;;2.78;59.21;100706.34;8531197;33;20693;-71
2021/01/16 21:45:21;;;;;;;17.83;10.10;;;;;;;2.79;59.47;100700.13;8536487;33;20179;-71
2021/01/16 21:50:25;;;;;;;17.70;9.67;;;;;;;2.78;59.47;100695.78;8537346;33;20416;-72
2021/01/16 21:55:27;;;;;;;21.63;10.03;;;;;;;2.79;59.52;100694.88;8536853;33;20500;-72
2021/01/16 22:00:31;;;;;;;18.83;9.00;;;;;;;2.75;59.80;100695.88;8535976;33;20442;-72
2021/01/16 22:05:35;;;;;;;19.57;9.97;;;;;;;2.71;59.48;100694.22;8536861;33;20424;-72
2021/01/16 22:10:39;;;;;;;16.20;9.27;;;;;;;2.71;59.86;100696.88;8537027;33;20786;-72
2021/01/16 22:15:42;;;;;;;16.03;8.30;;;;;;;2.78;59.54;100698.44;8526881;33;20160;-73
2021/01/16 22:20:45;;;;;;;17.57;9.40;;;;;;;2.75;59.49;100688.81;8504988;33;20443;-72
2021/01/16 22:25:50;;;;;;;19.37;8.00;;;;;;;2.76;59.50;100687.03;8481506;33;20940;-72
2021/01/16 22:30:53;;;;;;;15.57;9.03;;;;;;;2.68;59.38;100680.22;8479234;33;20525;-71
2021/01/16 22:35:56;;;;;;;13.97;7.83;;;;;;;2.72;59.42;100680.16;8482419;33;20479;-71
2021/01/16 22:40:58;;;;;;;14.23;7.83;;;;;;;2.66;59.13;100679.41;8501778;33;20179;-71
2021/01/16 22:46:02;;;;;;;12.20;7.20;;;;;;;2.62;59.47;100672.47;8504726;33;21251;-71
2021/01/16 22:51:05;;;;;;;14.37;8.10;;;;;;;2.64;59.85;100672.44;8497619;33;20429;-71
2021/01/16 22:56:08;;;;;;;14.40;6.93;;;;;;;2.58;59.96;100677.91;8503570;33;20635;-71
2021/01/16 23:01:10;;;;;;;12.93;5.60;;;;;;;2.50;59.87;100662.31;8472859;33;20256;-71
2021/01/16 23:06:14;;;;;;;13.60;7.40;;;;;;;2.42;60.64;100665.16;8493007;33;22104;-71
2021/01/16 23:11:17;;;;;;;16.53;7.87;;;;;;;2.50;61.46;100659.66;8531755;33;20147;-71
2021/01/16 23:16:21;;;;;;;15.10;6.87;;;;;;;2.39;62.05;100653.84;8530777;33;20839;-71
2021/01/16 23:21:25;;;;;;;11.97;6.73;;;;;;;2.27;63.99;100651.53;8519025;33;20418;-71
2021/01/16 23:26:27;;;;;;;17.87;7.77;;;;;;;2.16;64.98;100646.56;8513757;33;20883;-71
2021/01/16 23:31:29;;;;;;;14.43;6.43;;;;;;;2.05;66.31;100638.97;8525799;33;20154;-71